Time;durP1;ratioP1;P1;durP2;ratioP2;P2;SDS_P1;SDS_P2;PMS_P1;PMS_P2;Temp;Humidity;BMP_temperature;BMP_pressure;BME280_temperature;BME280_humidity;BME280_pressure;Samples;Min_cycle;Max_cycle;Signal;HPM_P1;HPM_P2
2022/06/23 00:01:05;;;;;;;7.37;4.70;;;15.10;56.30;;;;;;4960447;29;20452;-82
2022/06/23 00:03:35;;;;;;;7.50;4.37;;;15.00;57.40;;;;;;4960763;29;20452;-82
2022/06/23 00:06:05;;;;;;;7.50;4.80;;;15.00;60.10;;;;;;4959855;29;20483;-82
2022/06/23 00:08:32;;;;;;;6.33;4.07;;;15.00;60.30;;;;;;4959243;29;20466;-82
2022/06/23 00:10:59;;;;;;;12.03;5.00;;;15.00;61.40;;;;;;4960017;29;20463;-82
2022/06/23 00:13:33;;;;;;;6.50;3.70;;;14.80;59.20;;;;;;4959419;29;20480;-82
2022/06/23 00:16:02;;;;;;;7.47;4.43;;;14.80;61.40;;;;;;4940569;29;21016;-82
2022/06/23 00:18:33;;;;;;;6.00;3.93;;;14.70;62.30;;;;;;4953985;29;20460;-82
2022/06/23 00:21:04;;;;;;;13.90;4.13;;;14.70;62.60;;;;;;4960171;29;20463;-82
2022/06/23 00:23:34;;;;;;;6.53;4.20;;;14.70;62.00;;;;;;4959998;29;20452;-82
2022/06/23 00:26:05;;;;;;;6.47;3.67;;;14.60;63.70;;;;;;4960029;29;20471;-82
2022/06/23 00:28:36;;;;;;;8.63;4.30;;;14.60;64.00;;;;;;4958547;28;20845;-82
2022/06/23 00:31:07;;;;;;;6.83;4.07;;;14.50;62.80;;;;;;4959539;29;20456;-82
2022/06/23 00:33:40;;;;;;;6.60;4.50;;;14.50;65.10;;;;;;4959363;29;20976;-82
2022/06/23 00:36:18;;;;;;;6.80;5.70;;;14.50;67.30;;;;;;4990016;23;20497;-81
2022/06/23 00:38:46;;;;;;;7.23;6.13;;;14.30;69.70;;;;;;4990868;28;20949;-82
2022/06/23 00:41:20;;;;;;;8.53;7.70;;;14.30;71.50;;;;;;4978381;28;20486;-82
2022/06/23 00:43:56;;;;;;;8.57;7.73;;;14.30;74.20;;;;;;4971709;29;20447;-82
2022/06/23 00:46:47;;;;;;;13.63;6.90;;;14.40;74.70;;;;;;5009977;28;20474;-81
2022/06/23 00:49:23;;;;;;;9.20;7.00;;;14.30;73.00;;;;;;5005089;28;20485;-80
2022/06/23 00:54:44;;;;;;;8.70;7.90;;;14.20;76.40;;;;;;5009906;28;20470;-82
2022/06/23 00:57:28;;;;;;;9.37;7.13;;;14.30;76.20;;;;;;5010195;28;20546;-81
2022/06/23 01:00:06;;;;;;;12.50;8.03;;;14.20;76.70;;;;;;4980082;28;20465;-80
2022/06/23 01:02:47;;;;;;;8.60;7.80;;;14.20;78.40;;;;;;4992664;28;20817;-81
2022/06/23 01:05:20;;;;;;;14.30;13.20;;;14.00;79.40;;;;;;5029606;28;20449;-80
2022/06/23 01:08:01;;;;;;;15.20;14.30;;;14.20;80.80;;;;;;5028879;28;20523;-81
2022/06/23 01:10:44;;;;;;;16.73;15.53;;;14.10;80.70;;;;;;5012160;28;20461;-81
2022/06/23 01:13:21;;;;;;;18.43;17.37;;;14.10;81.10;;;;;;5024213;28;20595;-81
2022/06/23 01:15:55;;;;;;;16.10;14.73;;;14.20;81.80;;;;;;5009337;28;20470;-81
2022/06/23 01:18:36;;;;;;;14.87;13.57;;;13.80;81.90;;;;;;5007471;28;20446;-81
2022/06/23 01:21:08;;;;;;;14.73;13.73;;;14.00;83.30;;;;;;4992338;28;20555;-81
2022/06/23 01:24:21;;;;;;;15.90;14.37;;;13.90;83.40;;;;;;5015963;28;20442;-81
2022/06/23 01:27:03;;;;;;;15.67;14.57;;;13.90;84.50;;;;;;5000728;28;20462;-81
2022/06/23 01:29:40;;;;;;;10.80;10.00;;;14.10;82.90;;;;;;5022870;28;20519;-81
2022/06/23 01:32:17;;;;;;;10.30;9.40;;;13.70;81.90;;;;;;5029025;28;20453;-81
2022/06/23 01:35:04;;;;;;;16.23;14.83;;;14.00;81.80;;;;;;5010826;28;20478;-81
2022/06/23 01:37:42;;;;;;;11.40;10.60;;;14.00;84.30;;;;;;5018327;28;20473;-82
2022/06/23 01:40:17;;;;;;;13.93;12.93;;;13.90;85.00;;;;;;5027364;28;20449;-80
2022/06/23 01:42:54;;;;;;;25.77;24.47;;;13.80;85.80;;;;;;5014199;28;20458;-80
2022/06/23 01:45:37;;;;;;;44.77;42.77;;;13.90;88.20;;;;;;4992058;28;20950;-81
2022/06/23 01:48:13;;;;;;;34.67;32.97;;;13.80;89.00;;;;;;5009437;28;20456;-81
2022/06/23 01:50:49;;;;;;;41.37;39.57;;;13.90;89.20;;;;;;5015520;28;20453;-81
2022/06/23 01:53:28;;;;;;;56.43;54.13;;;13.80;90.30;;;;;;5027939;28;20479;-80
2022/06/23 01:56:08;;;;;;;54.00;51.77;;;13.80;90.70;;;;;;5028249;28;20560;-82
2022/06/23 01:58:50;;;;;;;56.20;54.00;;;13.80;90.60;;;;;;5024856;28;20556;-81
2022/06/23 02:01:32;;;;;;;42.47;40.67;;;13.80;90.50;;;;;;5013880;28;20473;-82
2022/06/23 02:04:15;;;;;;;51.40;48.97;;;13.70;90.00;;;;;;5009091;28;20473;-82
2022/06/23 02:06:50;;;;;;;50.87;48.77;;;13.70;90.40;;;;;;5023992;28;20471;-81
2022/06/23 02:09:25;;;;;;;52.73;50.43;;;13.70;90.50;;;;;;5015112;28;20454;-82
2022/06/23 02:11:57;;;;;;;64.93;62.10;;;13.50;90.90;;;;;;5009055;28;20457;-81
2022/06/23 02:14:50;;;;;;;59.13;56.47;;;13.70;91.10;;;;;;5023288;28;20484;-82
2022/06/23 02:17:43;;;;;;;70.77;67.97;;;13.50;91.30;;;;;;5028218;28;20556;-82
2022/06/23 02:20:43;;;;;;;78.50;75.50;;;13.60;92.50;;;;;;4988891;28;21133;-81
2022/06/23 02:23:36;;;;;;;78.90;75.70;;;13.40;92.40;;;;;;4995088;28;20453;-81
2022/06/23 02:26:08;;;;;;;67.43;64.20;;;13.60;92.50;;;;;;5023063;28;20477;-80
2022/06/23 02:28:43;;;;;;;68.00;65.30;;;13.60;92.50;;;;;;5026962;28;20461;-80
2022/06/23 02:31:25;;;;;;;74.97;72.00;;;13.50;92.90;;;;;;5028668;28;20487;-81
2022/06/23 02:34:03;;;;;;;87.70;84.23;;;13.40;92.50;;;;;;5020621;28;20466;-81
2022/06/23 02:37:03;;;;;;;82.03;78.70;;;13.50;93.40;;;;;;5008625;28;20486;-81
2022/06/23 02:39:38;;;;;;;33.80;31.90;;;13.50;93.90;;;;;;5028247;28;20445;-81
2022/06/23 02:42:22;;;;;;;24.13;22.53;;;13.50;92.40;;;;;;5027414;28;20528;-81
2022/06/23 02:45:13;;;;;;;28.83;27.50;;;13.40;91.20;;;;;;5027810;28;20453;-80
2022/06/23 02:48:06;;;;;;;42.20;39.90;;;13.40;92.40;;;;;;5010488;28;20470;-80
2022/06/23 02:50:52;;;;;;;44.83;42.80;;;13.50;93.00;;;;;;5010911;28;20446;-80
2022/06/23 02:53:51;;;;;;;39.60;37.80;;;13.50;93.10;;;;;;5000070;28;20460;-80
2022/06/23 02:56:41;;;;;;;39.43;37.63;;;13.50;93.10;;;;;;5002383;28;20563;-81
2022/06/23 02:59:14;;;;;;;34.03;32.23;;;13.60;92.40;;;;;;4977071;28;20466;-80
2022/06/23 03:01:48;;;;;;;25.63;23.77;;;13.70;92.50;;;;;;4984592;28;20457;-81
2022/06/23 03:04:20;;;;;;;22.20;20.20;;;13.80;90.60;;;;;;5015032;28;20909;-80
2022/06/23 03:07:01;;;;;;;13.77;12.67;;;13.80;90.10;;;;;;4995636;28;20474;-79
2022/06/23 03:09:33;;;;;;;17.87;16.27;;;13.70;88.70;;;;;;4992788;28;20454;-76
2022/06/23 03:12:34;;;;;;;17.33;12.43;;;13.90;88.00;;;;;;5007239;28;20453;-81
2022/06/23 03:15:14;;;;;;;16.93;15.63;;;13.90;89.60;;;;;;5014668;28;20472;-82
2022/06/23 03:17:47;;;;;;;13.90;12.70;;;13.80;90.20;;;;;;5018054;28;20505;-81
2022/06/23 03:20:30;;;;;;;17.33;16.00;;;13.70;89.70;;;;;;5021024;28;20524;-81
2022/06/23 03:23:05;;;;;;;28.33;26.80;;;13.70;90.40;;;;;;5013343;28;20453;-81
2022/06/23 03:26:04;;;;;;;25.30;23.73;;;13.80;91.80;;;;;;5005548;28;20854;-81
2022/06/23 03:29:03;;;;;;;27.07;25.37;;;13.90;91.40;;;;;;4998788;28;20458;-81
2022/06/23 03:31:45;;;;;;;23.13;21.40;;;13.80;91.10;;;;;;5007600;28;20454;-81
2022/06/23 03:34:39;;;;;;;29.30;27.70;;;13.80;91.20;;;;;;5006463;28;20493;-81
2022/06/23 03:37:22;;;;;;;23.77;22.37;;;13.90;91.40;;;;;;5007164;28;20513;-81
2022/06/23 03:43:21;;;;;;;13.93;12.60;;;14.00;89.70;;;;;;4988547;28;20531;-82
2022/06/23 03:45:53;;;;;;;18.87;16.57;;;14.00;90.00;;;;;;4989323;28;20462;-82
2022/06/23 03:48:28;;;;;;;19.33;17.60;;;14.00;90.10;;;;;;5018739;28;20468;-81
2022/06/23 03:51:00;;;;;;;17.73;16.23;;;14.00;90.30;;;;;;4988860;28;20445;-81
2022/06/23 03:53:31;;;;;;;14.30;13.20;;;14.10;90.00;;;;;;5010991;28;20528;-82
2022/06/23 03:56:04;;;;;;;15.60;14.40;;;14.20;89.40;;;;;;5013971;28;20548;-81
2022/06/23 03:58:40;;;;;;;13.17;11.77;;;14.50;89.40;;;;;;5020310;28;20485;-80
2022/06/23 04:01:17;;;;;;;14.43;12.73;;;14.50;88.80;;;;;;5024857;28;20453;-82
2022/06/23 04:03:48;;;;;;;18.10;16.50;;;14.60;88.40;;;;;;5019206;28;20450;-81
2022/06/23 04:06:22;;;;;;;19.73;18.27;;;14.60;89.90;;;;;;5012007;28;20469;-82
2022/06/23 04:09:05;;;;;;;16.30;14.80;;;14.70;90.00;;;;;;5025920;28;20458;-81
2022/06/23 04:11:45;;;;;;;18.73;17.43;;;14.80;90.00;;;;;;5026845;28;20459;-81
2022/06/23 04:14:17;;;;;;;14.90;12.87;;;14.80;88.60;;;;;;5008292;28;20541;-81
2022/06/23 04:16:46;;;;;;;12.10;11.17;;;15.10;87.80;;;;;;5027822;28;20831;-81
2022/06/23 04:19:18;;;;;;;11.57;10.30;;;15.20;87.20;;;;;;5028487;28;20487;-79
2022/06/23 04:21:49;;;;;;;7.33;6.63;;;15.40;86.30;;;;;;5012390;28;20443;-81
2022/06/23 04:24:19;;;;;;;7.77;5.57;;;15.60;83.20;;;;;;5027686;28;20445;-79
2022/06/23 04:26:50;;;;;;;7.17;4.70;;;15.70;80.10;;;;;;4992414;28;21068;-81
2022/06/23 04:29:23;;;;;;;6.40;4.97;;;16.00;78.60;;;;;;5010395;28;20450;-82
2022/06/23 04:31:52;;;;;;;6.80;4.57;;;16.10;78.50;;;;;;5021909;28;20453;-82
2022/06/23 04:34:21;;;;;;;14.40;8.80;;;16.20;78.10;;;;;;5010599;28;20474;-82
2022/06/23 04:36:48;;;;;;;10.17;5.13;;;16.40;76.90;;;;;;5007519;28;20489;-82
2022/06/23 04:39:24;;;;;;;8.30;4.53;;;16.50;76.50;;;;;;5029508;28;20454;-80
2022/06/23 04:41:59;;;;;;;7.00;4.73;;;16.70;75.80;;;;;;5021489;28;20458;-80
2022/06/23 04:44:29;;;;;;;6.67;4.00;;;16.80;72.40;;;;;;5013094;28;20451;-82
2022/06/23 04:47:00;;;;;;;5.60;3.47;;;17.10;70.40;;;;;;5019564;28;20542;-82
2022/06/23 04:49:34;;;;;;;10.07;4.43;;;17.10;67.50;;;;;;5026392;28;20446;-80
2022/06/23 04:52:04;;;;;;;7.57;3.90;;;17.30;66.90;;;;;;5011364;28;20517;-82
2022/06/23 04:54:45;;;;;;;7.60;4.27;;;17.40;64.60;;;;;;5011816;28;20490;-82
2022/06/23 04:57:18;;;;;;;6.93;3.23;;;17.60;63.90;;;;;;5010227;28;20479;-81
2022/06/23 04:59:49;;;;;;;10.30;3.43;;;17.70;63.60;;;;;;5016221;28;20492;-81
2022/06/23 05:02:29;;;;;;;7.57;4.10;;;17.70;63.90;;;;;;5025334;28;20450;-82
2022/06/23 05:05:03;;;;;;;6.20;3.70;;;17.80;63.40;;;;;;5009829;28;20542;-82
2022/06/23 05:07:34;;;;;;;8.20;4.10;;;18.00;64.10;;;;;;5009336;28;20480;-82
2022/06/23 05:10:07;;;;;;;5.43;3.20;;;18.10;62.40;;;;;;5028678;28;20504;-82
2022/06/23 05:12:40;;;;;;;13.43;4.10;;;18.20;61.60;;;;;;5015155;28;20457;-81
2022/06/23 05:15:16;;;;;;;5.53;3.13;;;18.20;58.80;;;;;;5024729;28;20491;-82
2022/06/23 05:18:18;;;;;;;5.70;3.50;;;18.40;57.40;;;;;;5020286;28;20472;-87
2022/06/23 05:21:25;;;;;;;6.23;3.60;;;18.80;55.90;;;;;;5007931;28;20525;-88
2022/06/23 05:30:51;;;;;;;6.50;3.60;;;20.70;45.00;;;;;;4992174;28;20459;-87
2022/06/23 05:38:03;;;;;;;5.67;3.13;;;21.70;39.70;;;;;;4938610;28;20475;-87
2022/06/23 06:04:50;;;;;;;7.00;3.40;;;23.80;27.70;;;;;;4893214;29;20479;-86
2022/06/23 06:13:45;;;;;;;6.50;3.30;;;24.80;26.10;;;;;;4896589;28;20965;-83
2022/06/23 06:53:10;;;;;;;8.33;3.70;;;26.60;22.20;;;;;;4955328;28;20459;-86
2022/06/23 07:00:15;;;;;;;7.10;3.30;;;27.10;22.00;;;;;;4821335;29;20460;-86
2022/06/23 07:03:56;;;;;;;10.10;4.10;;;27.30;20.40;;;;;;4886309;29;20464;-87
2022/06/23 07:10:03;;;;;;;13.60;3.90;;;27.50;19.80;;;;;;4880185;29;20446;-84
2022/06/23 07:22:29;;;;;;;6.90;3.47;;;28.00;19.30;;;;;;4959598;28;20543;-82
2022/06/23 07:25:02;;;;;;;9.03;3.60;;;28.10;18.90;;;;;;4966456;28;20482;-79
2022/06/23 07:27:35;;;;;;;8.37;3.40;;;28.20;17.50;;;;;;4975300;28;20821;-79
2022/06/23 07:30:05;;;;;;;8.45;3.60;;;28.20;17.50;;;;;;4974789;28;20449;-77
2022/06/23 07:32:44;;;;;;;10.57;3.40;;;28.50;17.70;;;;;;4971774;28;20203;-81
2022/06/23 07:35:24;;;;;;;8.23;3.40;;;28.60;17.40;;;;;;4959999;28;20426;-81
2022/06/23 07:37:59;;;;;;;8.63;3.97;;;28.70;15.70;;;;;;4976511;28;21018;-80
2022/06/23 07:40:32;;;;;;;6.57;3.00;;;28.90;15.50;;;;;;4980067;28;20934;-80
2022/06/23 07:43:05;;;;;;;11.20;3.70;;;29.00;18.00;;;;;;4980664;28;20929;-81
2022/06/23 07:45:37;;;;;;;8.90;3.40;;;29.10;15.20;;;;;;4980846;28;20551;-81
2022/06/23 07:48:05;;;;;;;11.10;3.60;;;29.40;14.20;;;;;;4979782;28;20425;-81
2022/06/23 07:50:32;;;;;;;10.43;3.60;;;29.30;15.40;;;;;;4969305;28;20480;-81
2022/06/23 07:53:00;;;;;;;8.50;3.73;;;29.50;14.00;;;;;;4974507;28;20432;-82
2022/06/23 07:55:35;;;;;;;8.03;3.63;;;29.50;16.60;;;;;;4970960;28;20799;-81
2022/06/23 07:58:02;;;;;;;10.33;3.73;;;29.50;14.90;;;;;;4963182;29;20832;-81
2022/06/23 08:00:31;;;;;;;8.30;4.07;;;29.60;15.10;;;;;;4972776;28;20450;-81
2022/06/23 08:03:03;;;;;;;9.70;4.00;;;29.60;14.20;;;;;;4982632;28;20426;-81
2022/06/23 08:05:37;;;;;;;12.93;3.83;;;29.70;14.60;;;;;;4970869;28;20475;-79
2022/06/23 08:08:06;;;;;;;8.07;3.63;;;29.90;14.50;;;;;;4975814;28;20458;-80
2022/06/23 08:10:38;;;;;;;8.50;4.57;;;30.00;12.70;;;;;;4980136;28;20990;-81
2022/06/23 08:13:09;;;;;;;8.33;3.57;;;29.90;12.20;;;;;;4978853;28;20545;-81
2022/06/23 08:24:44;;;;;;;9.80;4.10;;;30.10;12.00;;;;;;4959814;28;20538;-81
2022/06/23 08:27:54;;;;;;;;;;;;;;;;;;;;;
2022/06/23 08:30:25;;;;;;;8.43;3.90;;;30.10;11.80;;;;;;4993462;23;20565;-79
2022/06/23 08:32:53;;;;;;;9.33;4.10;;;29.90;12.30;;;;;;4981990;28;20837;-81
2022/06/23 08:35:25;;;;;;;7.30;4.00;;;30.00;11.70;;;;;;4986112;28;20465;-82
2022/06/23 08:37:57;;;;;;;7.17;3.93;;;29.90;9.60;;;;;;4998768;28;20457;-80
2022/06/23 08:40:48;;;;;;;9.57;4.40;;;29.80;10.80;;;;;;4999993;28;20448;-82
2022/06/23 08:43:22;;;;;;;10.07;4.10;;;29.60;8.60;;;;;;5003266;28;20454;-81
2022/06/23 08:45:56;;;;;;;11.43;5.20;;;29.60;8.50;;;;;;5003131;28;20483;-82
2022/06/23 08:48:28;;;;;;;8.60;3.57;;;29.60;9.10;;;;;;5003345;28;20436;-82
2022/06/23 08:51:03;;;;;;;8.40;4.40;;;29.70;7.80;;;;;;5002295;28;20477;-88
2022/06/23 08:53:36;;;;;;;6.57;4.10;;;29.70;8.10;;;;;;5009498;28;20933;-87
2022/06/23 08:56:10;;;;;;;8.43;4.47;;;30.00;8.60;;;;;;4997033;28;20939;-89
2022/06/23 08:58:41;;;;;;;8.70;4.53;;;30.60;7.30;;;;;;5003008;28;20428;-86
2022/06/23 09:01:14;;;;;;;12.63;4.30;;;30.90;4.10;;;;;;5008125;28;20972;-86
2022/06/23 09:03:50;;;;;;;13.10;4.60;;;30.90;3.60;;;;;;5000869;28;20429;-85
2022/06/23 09:06:31;;;;;;;8.63;4.37;;;30.70;3.40;;;;;;5002859;28;20451;-85
2022/06/23 09:09:10;;;;;;;7.67;4.40;;;30.90;3.50;;;;;;5016224;28;20476;-87
2022/06/23 09:11:47;;;;;;;9.07;4.77;;;31.10;3.60;;;;;;5016057;28;20423;-88
2022/06/23 09:14:46;;;;;;;6.60;3.90;;;31.00;3.40;;;;;;5002791;28;20457;-87
2022/06/23 09:17:40;;;;;;;7.87;3.70;;;31.00;1.00;;;;;;4998200;28;20429;-85
2022/06/23 09:20:32;;;;;;;7.90;5.40;;;30.70;1.00;;;;;;5012177;28;20451;-85
2022/06/23 09:23:14;;;;;;;10.40;3.92;;;31.00;1.00;;;;;;5005897;28;20468;-85
2022/06/23 09:25:51;;;;;;;8.10;3.70;;;31.20;1.00;;;;;;5001706;28;20471;-86
2022/06/23 09:28:20;;;;;;;6.80;4.27;;;31.00;1.00;;;;;;5006408;28;20449;-86
2022/06/23 09:30:56;;;;;;;5.73;3.37;;;31.30;1.00;;;;;;4996820;28;20532;-86
2022/06/23 09:33:32;;;;;;;6.33;4.03;;;31.30;1.00;;;;;;5004478;28;20427;-87
2022/06/23 09:36:36;;;;;;;9.93;4.00;;;32.10;1.00;;;;;;5016243;28;20476;-85
2022/06/23 09:39:24;;;;;;;9.77;3.63;;;32.20;1.00;;;;;;5004637;28;20451;-86
2022/06/23 09:42:16;;;;;;;11.00;4.47;;;32.20;1.00;;;;;;4996447;28;20464;-86
2022/06/23 09:45:01;;;;;;;7.47;3.40;;;32.50;1.00;;;;;;4989968;28;20437;-87
2022/06/23 09:48:07;;;;;;;7.10;4.03;;;32.40;1.00;;;;;;5003430;28;20944;-87
2022/06/23 09:50:51;;;;;;;10.07;4.20;;;32.20;1.00;;;;;;4972005;28;20458;-87
2022/06/23 09:53:59;;;;;;;8.70;3.60;;;32.80;1.00;;;;;;5001964;28;20423;-86
2022/06/23 09:56:57;;;;;;;6.70;3.70;;;33.20;1.00;;;;;;4954997;28;20466;-86
2022/06/23 09:59:49;;;;;;;7.40;3.50;;;33.70;1.00;;;;;;4988058;28;20444;-87
2022/06/23 10:02:34;;;;;;;7.87;4.03;;;33.60;1.00;;;;;;5003611;28;20936;-86
2022/06/23 10:05:15;;;;;;;5.97;3.57;;;33.90;1.00;;;;;;5014640;28;20445;-84
2022/06/23 10:08:14;;;;;;;6.70;3.40;;;33.40;1.00;;;;;;5011332;28;20912;-86
2022/06/23 10:10:55;;;;;;;10.33;3.20;;;33.70;1.00;;;;;;4976288;28;20485;-85
2022/06/23 10:13:57;;;;;;;9.30;3.73;;;33.80;1.00;;;;;;5016638;28;20805;-87
2022/06/23 10:16:39;;;;;;;10.67;3.20;;;34.70;1.00;;;;;;5013963;28;20452;-87
2022/06/23 10:19:35;;;;;;;6.23;3.07;;;34.50;1.00;;;;;;4996576;28;20470;-88
2022/06/23 10:22:20;;;;;;;10.90;3.40;;;34.30;1.00;;;;;;4980974;28;20458;-87
2022/06/23 10:25:11;;;;;;;6.37;3.53;;;34.50;1.00;;;;;;4994228;28;20849;-87
2022/06/23 10:28:04;;;;;;;9.10;3.20;;;34.90;1.00;;;;;;4994911;28;20424;-88
2022/06/23 10:30:40;;;;;;;11.83;3.40;;;35.40;1.00;;;;;;4993049;28;20456;-88
2022/06/23 10:33:32;;;;;;;7.43;3.00;;;35.70;1.00;;;;;;4993904;28;20454;-89
2022/06/23 10:36:24;;;;;;;7.10;4.00;;;35.30;1.00;;;;;;4994026;28;20473;-86
2022/06/23 10:39:01;;;;;;;9.90;3.50;;;35.50;1.00;;;;;;4984370;28;20433;-85
2022/06/23 10:41:50;;;;;;;7.30;3.00;;;35.80;1.00;;;;;;5020872;28;20454;-86
2022/06/23 10:44:35;;;;;;;7.27;2.93;;;35.80;1.00;;;;;;4981518;28;20463;-84
2022/06/23 10:47:20;;;;;;;8.67;3.90;;;36.10;1.00;;;;;;4987075;28;20477;-85
2022/06/23 10:50:11;;;;;;;9.40;3.30;;;36.40;1.00;;;;;;5017894;28;20484;-84
2022/06/23 10:53:01;;;;;;;6.43;2.97;;;36.70;1.00;;;;;;5015182;28;20435;-86
2022/06/23 10:55:49;;;;;;;7.30;3.17;;;36.80;1.00;;;;;;5002838;28;20453;-86
2022/06/23 10:58:44;;;;;;;8.80;3.90;;;36.70;1.00;;;;;;5005738;28;20457;-85
2022/06/23 11:01:30;;;;;;;9.67;3.43;;;36.70;1.00;;;;;;5003335;28;20432;-85
2022/06/23 11:04:27;;;;;;;6.67;3.27;;;37.00;1.00;;;;;;5017559;28;20428;-85
2022/06/23 11:07:11;;;;;;;8.40;3.50;;;37.20;1.00;;;;;;5014183;28;20459;-85
2022/06/23 11:09:49;;;;;;;8.13;3.33;;;37.50;1.00;;;;;;5020021;28;20453;-85
2022/06/23 11:12:34;;;;;;;8.87;3.43;;;36.90;1.00;;;;;;5004839;28;20424;-87
2022/06/23 11:15:13;;;;;;;9.87;4.10;;;36.80;1.00;;;;;;4996562;28;20464;-87
2022/06/23 11:17:55;;;;;;;7.83;3.93;;;36.80;1.00;;;;;;5007833;28;20445;-86
2022/06/23 11:20:31;;;;;;;10.33;4.07;;;37.30;1.00;;;;;;5004238;28;20448;-87
2022/06/23 11:23:05;;;;;;;6.63;3.70;;;37.60;1.00;;;;;;4996800;28;20456;-87
2022/06/23 11:25:43;;;;;;;6.70;3.60;;;37.80;1.00;;;;;;5008067;28;20423;-86
2022/06/23 11:28:18;;;;;;;8.50;4.33;;;38.10;1.00;;;;;;5016486;28;20456;-85
2022/06/23 11:30:58;;;;;;;6.53;3.50;;;38.30;1.00;;;;;;5007675;28;20527;-84
2022/06/23 11:33:41;;;;;;;8.83;3.97;;;37.40;1.00;;;;;;5001328;28;20452;-85
2022/06/23 11:36:17;;;;;;;11.20;4.47;;;38.00;1.00;;;;;;5015432;28;20907;-83
2022/06/23 11:39:18;;;;;;;7.63;3.50;;;36.80;1.00;;;;;;5020264;28;20984;-86
2022/06/23 11:42:27;;;;;;;7.67;4.40;;;37.50;1.00;;;;;;4963985;28;20437;-87
2022/06/23 11:45:07;;;;;;;6.63;3.30;;;37.80;1.00;;;;;;4990500;28;20427;-87
2022/06/23 11:47:49;;;;;;;8.97;3.80;;;38.30;1.00;;;;;;5016188;28;20503;-86
2022/06/23 11:50:23;;;;;;;7.63;3.47;;;38.80;1.00;;;;;;5009022;28;20474;-86
2022/06/23 11:53:05;;;;;;;10.37;4.73;;;39.20;1.00;;;;;;4997180;28;20453;-86
2022/06/23 11:55:39;;;;;;;7.93;3.40;;;40.10;1.00;;;;;;5006019;28;20453;-85
2022/06/23 11:58:18;;;;;;;6.90;4.00;;;39.80;1.00;;;;;;5016807;28;20456;-86
2022/06/23 12:00:56;;;;;;;8.87;3.30;;;39.50;1.00;;;;;;5005052;28;20501;-84
2022/06/23 12:03:45;;;;;;;7.00;3.70;;;39.80;1.00;;;;;;5001653;28;20461;-87
2022/06/23 12:06:23;;;;;;;6.50;3.47;;;38.40;1.00;;;;;;4998745;28;20477;-85
2022/06/23 12:08:59;;;;;;;10.53;3.53;;;38.20;1.00;;;;;;5005972;28;20449;-85
2022/06/23 12:11:27;;;;;;;8.60;3.90;;;38.40;1.00;;;;;;5008252;28;20460;-86
2022/06/23 12:13:58;;;;;;;8.53;3.77;;;38.60;1.00;;;;;;5014593;28;20438;-86
2022/06/23 12:16:24;;;;;;;6.60;3.17;;;38.30;1.00;;;;;;5013275;28;20438;-85
2022/06/23 12:18:57;;;;;;;8.47;4.03;;;37.80;1.00;;;;;;5011767;28;20424;-85
2022/06/23 12:21:33;;;;;;;8.63;3.83;;;38.70;1.00;;;;;;5006232;28;20436;-87
2022/06/23 12:24:10;;;;;;;10.43;4.13;;;40.30;1.00;;;;;;5003424;28;20819;-87
2022/06/23 12:26:41;;;;;;;8.33;3.73;;;40.10;1.00;;;;;;5015277;28;20447;-86
2022/06/23 12:29:14;;;;;;;8.70;3.90;;;39.10;1.00;;;;;;5018947;28;20455;-86
2022/06/23 12:31:48;;;;;;;7.20;3.63;;;39.20;1.00;;;;;;5012550;28;20427;-87
2022/06/23 12:34:23;;;;;;;8.23;3.70;;;39.60;1.00;;;;;;5015126;28;20437;-86
2022/06/23 12:37:00;;;;;;;9.73;3.70;;;40.00;1.00;;;;;;5003388;28;20463;-85
2022/06/23 12:39:34;;;;;;;6.57;3.63;;;40.50;1.00;;;;;;5001001;28;20562;-83
2022/06/23 12:42:08;;;;;;;10.30;3.83;;;40.70;1.00;;;;;;5001242;28;20488;-85
2022/06/23 12:44:43;;;;;;;7.73;3.63;;;41.30;1.00;;;;;;5003151;28;20786;-83
2022/06/23 12:47:20;;;;;;;10.90;3.60;;;41.60;1.00;;;;;;5013252;28;20472;-84
2022/06/23 12:50:14;;;;;;;10.07;3.43;;;41.00;1.00;;;;;;4996903;28;20480;-84
2022/06/23 12:52:52;;;;;;;9.00;4.17;;;40.50;1.00;;;;;;5005327;28;20524;-85
2022/06/23 12:55:33;;;;;;;7.37;3.90;;;40.30;1.00;;;;;;5015880;28;20961;-85
2022/06/23 12:58:22;;;;;;;11.33;2.90;;;40.40;1.00;;;;;;5007784;28;20450;-84
2022/06/23 13:00:58;;;;;;;11.60;3.30;;;40.90;1.00;;;;;;5008309;28;20465;-86
2022/06/23 13:03:29;;;;;;;9.40;3.57;;;40.60;1.00;;;;;;4996896;28;20872;-84
2022/06/23 13:06:12;;;;;;;6.17;3.20;;;40.60;1.00;;;;;;5004380;28;20445;-84
2022/06/23 13:08:49;;;;;;;8.47;4.03;;;40.90;1.00;;;;;;4999586;28;20449;-84
2022/06/23 13:11:20;;;;;;;9.70;3.73;;;41.90;1.00;;;;;;5010653;28;20448;-83
2022/06/23 13:13:54;;;;;;;7.00;3.20;;;41.40;1.00;;;;;;5002034;28;20791;-84
2022/06/23 13:16:25;;;;;;;10.20;3.70;;;40.80;1.00;;;;;;5017000;28;20456;-84
2022/06/23 13:18:59;;;;;;;8.57;3.40;;;41.00;1.00;;;;;;5016771;28;20438;-84
2022/06/23 13:21:30;;;;;;;6.77;2.87;;;40.20;1.00;;;;;;4999923;28;20450;-84
2022/06/23 13:24:02;;;;;;;9.93;3.70;;;40.90;1.00;;;;;;4999002;28;20453;-84
2022/06/23 13:26:33;;;;;;;6.60;3.13;;;41.90;1.00;;;;;;4999228;28;20485;-84
2022/06/23 13:29:01;;;;;;;7.00;3.23;;;41.90;1.00;;;;;;4995037;28;20452;-84
2022/06/23 13:31:34;;;;;;;9.40;3.53;;;41.60;1.00;;;;;;5016560;28;20464;-84
2022/06/23 13:34:05;;;;;;;6.90;3.17;;;41.90;1.00;;;;;;5000759;28;21002;-84
2022/06/23 13:36:42;;;;;;;7.50;3.93;;;41.60;1.00;;;;;;4997720;28;20453;-84
2022/06/23 13:39:18;;;;;;;11.90;4.03;;;41.50;1.00;;;;;;4998767;28;20451;-84
2022/06/23 13:41:52;;;;;;;7.67;3.40;;;41.80;1.00;;;;;;5002436;28;20471;-84
2022/06/23 13:44:28;;;;;;;9.17;3.43;;;42.00;1.00;;;;;;5002639;28;20461;-84
2022/06/23 13:47:01;;;;;;;6.60;3.17;;;41.90;1.00;;;;;;4986266;28;20463;-83
2022/06/23 13:49:33;;;;;;;7.00;3.30;;;42.20;1.00;;;;;;5008157;28;20496;-84
2022/06/23 13:52:05;;;;;;;7.03;3.60;;;42.80;1.00;;;;;;5010610;28;20802;-84
2022/06/23 13:54:39;;;;;;;12.30;3.60;;;42.50;1.00;;;;;;5000992;28;20456;-84
2022/06/23 13:57:20;;;;;;;7.20;3.77;;;41.50;1.00;;;;;;4997834;28;20823;-84
2022/06/23 13:59:56;;;;;;;8.37;4.00;;;40.40;1.00;;;;;;4996607;28;20817;-83
2022/06/23 14:02:33;;;;;;;8.20;3.33;;;39.50;1.00;;;;;;4998167;28;20428;-83
2022/06/23 14:05:10;;;;;;;10.80;3.40;;;38.90;1.00;;;;;;4997727;28;20958;-84
2022/06/23 14:07:43;;;;;;;8.10;3.80;;;38.60;1.00;;;;;;4996291;28;20994;-84
2022/06/23 14:10:17;;;;;;;8.17;3.47;;;38.80;1.00;;;;;;5004501;28;20843;-84
2022/06/23 14:12:52;;;;;;;10.60;3.50;;;40.00;1.00;;;;;;5013642;28;20434;-84
2022/06/23 14:15:27;;;;;;;6.40;3.03;;;40.90;1.00;;;;;;5001541;28;20476;-86
2022/06/23 14:17:59;;;;;;;9.93;4.80;;;41.90;1.00;;;;;;4998555;28;20533;-83
2022/06/23 14:20:34;;;;;;;5.63;3.03;;;40.70;1.00;;;;;;5011262;28;20479;-83
2022/06/23 14:23:07;;;;;;;9.80;3.30;;;39.80;1.00;;;;;;5006832;28;20888;-82
2022/06/23 14:25:39;;;;;;;10.53;3.90;;;38.70;1.00;;;;;;4996792;28;20462;-82
2022/06/23 14:28:09;;;;;;;13.23;4.07;;;39.30;1.00;;;;;;4988684;28;20478;-83
2022/06/23 14:30:57;;;;;;;7.47;3.87;;;39.80;1.00;;;;;;4997490;23;20506;-85
2022/06/23 14:33:38;;;;;;;7.97;4.00;;;40.20;1.00;;;;;;4973663;28;20426;-84
2022/06/23 14:36:13;;;;;;;6.50;3.80;;;40.30;1.00;;;;;;4978872;28;20450;-85
2022/06/23 14:42:55;;;;;;;8.63;3.80;;;40.80;1.00;;;;;;4935918;29;20518;-84
2022/06/23 14:45:55;;;;;;;8.70;3.73;;;40.90;1.00;;;;;;4881585;29;20502;-84
2022/06/23 14:49:00;;;;;;;9.50;3.10;;;41.50;1.00;;;;;;4913418;29;20982;-83
2022/06/23 14:51:35;;;;;;;7.53;2.80;;;41.30;1.00;;;;;;4949247;29;20471;-85
2022/06/23 14:54:10;;;;;;;11.03;4.40;;;41.00;1.00;;;;;;4954995;28;22351;-85
2022/06/23 14:56:43;;;;;;;8.83;3.47;;;40.60;1.00;;;;;;4956047;28;20644;-85
2022/06/23 14:59:20;;;;;;;13.93;3.30;;;40.40;1.00;;;;;;4953584;28;20456;-85
2022/06/23 15:01:54;;;;;;;7.57;3.10;;;41.10;1.00;;;;;;4953707;29;20998;-85
2022/06/23 15:04:32;;;;;;;10.77;3.43;;;40.90;1.00;;;;;;4953602;29;20451;-85
2022/06/23 15:07:08;;;;;;;9.03;3.43;;;40.80;1.00;;;;;;4954137;29;20462;-85
2022/06/23 15:09:49;;;;;;;6.07;3.13;;;40.20;1.00;;;;;;4957764;28;20799;-84
2022/06/23 15:12:22;;;;;;;7.73;3.47;;;40.70;1.00;;;;;;4955420;29;20459;-84
2022/06/23 15:15:11;;;;;;;7.80;4.20;;;41.20;1.00;;;;;;4934400;29;20465;-86
2022/06/23 15:17:49;;;;;;;9.20;4.33;;;41.20;1.00;;;;;;4941385;28;20430;-86
2022/06/23 15:20:30;;;;;;;9.70;3.30;;;41.30;1.00;;;;;;4953086;28;20469;-86
2022/06/23 15:26:55;;;;;;;9.23;4.43;;;41.40;1.00;;;;;;4894729;29;20508;-84
2022/06/23 15:29:47;;;;;;;7.53;3.13;;;40.60;1.00;;;;;;4900389;29;20494;-87
2022/06/23 15:33:07;;;;;;;7.70;4.40;;;40.90;1.00;;;;;;4953648;28;20530;-85
2022/06/23 15:35:51;;;;;;;9.63;3.97;;;40.50;1.00;;;;;;4929762;29;20437;-85
2022/06/23 15:39:00;;;;;;;8.40;3.50;;;40.90;1.00;;;;;;4953596;28;20442;-85
2022/06/23 15:41:50;;;;;;;7.60;3.30;;;41.20;1.00;;;;;;4907362;29;20953;-85
2022/06/23 15:44:48;;;;;;;7.53;3.63;;;41.60;1.00;;;;;;4953112;28;20460;-85
2022/06/23 15:47:57;;;;;;;10.17;4.20;;;41.80;1.00;;;;;;4953534;28;20450;-85
2022/06/23 16:07:43;;;;;;;;;;;;;;;;;;;;;